Terminal Aerodrome Forecast
Issued by NWS Sterling, VA

Current Version | Previous Version | Text Only | Print | Product List | Glossary Off
Versions: 1 2 3 4 5 6 7 8 9 10 11 12 13 14 15 16 17 18 19 20 21 22 23 24 25 26 27 28

000
FTUS41 KLWX 290532
TAFIAD
TAF
KIAD 290532Z 2906/3012 VRB03KT P6SM FEW060
     FM290900 00000KT P6SM FEW250
     FM291400 21006KT P6SM SCT250
     FM300100 17004KT P6SM BKN080=

USA.gov is the U.S. government's official web portal to all federal, state and local government web resources and services.